createdAt,value
2022-12-09T00:00:25.184Z,1010.02
2022-12-09T00:01:25.289Z,1010.03
2022-12-09T00:02:25.408Z,1009.95
2022-12-09T00:03:25.332Z,1009.95
2022-12-09T00:04:25.359Z,1009.98
2022-12-09T00:05:25.201Z,1009.99
2022-12-09T00:06:25.180Z,1009.98
2022-12-09T00:07:25.262Z,1010.02
2022-12-09T00:08:25.305Z,1009.98
2022-12-09T00:09:25.225Z,1010
2022-12-09T00:10:25.411Z,1010
2022-12-09T00:11:25.314Z,1009.97
2022-12-09T00:12:25.352Z,1009.93
2022-12-09T00:13:25.231Z,1010
2022-12-09T00:14:25.178Z,1009.98
2022-12-09T00:15:25.344Z,1009.96
2022-12-09T00:16:25.457Z,1010.01
2022-12-09T00:17:25.489Z,1009.95
2022-12-09T00:18:25.197Z,1010.01
2022-12-09T00:19:25.189Z,1009.98
2022-12-09T00:20:25.440Z,1009.99
2022-12-09T00:21:25.181Z,1009.99
2022-12-09T00:22:25.175Z,1009.99
2022-12-09T00:23:25.184Z,1009.99
2022-12-09T00:24:25.302Z,1009.99
2022-12-09T00:25:25.190Z,1009.96
2022-12-09T00:26:25.402Z,1009.94
2022-12-09T00:27:25.177Z,1009.99
2022-12-09T00:28:25.174Z,1009.98
2022-12-09T00:29:25.178Z,1009.97
2022-12-09T00:30:25.433Z,1009.97
2022-12-09T00:31:25.422Z,1009.99
2022-12-09T00:32:25.413Z,1010.06
2022-12-09T00:33:25.183Z,1009.97
2022-12-09T00:34:25.246Z,1010.03
2022-12-09T00:35:25.202Z,1010
2022-12-09T00:36:25.225Z,1010.02
2022-12-09T00:37:25.161Z,1010.01
2022-12-09T00:38:25.469Z,1009.96
2022-12-09T00:39:25.193Z,1009.95
2022-12-09T00:40:25.190Z,1009.94
2022-12-09T00:41:25.184Z,1009.92
2022-12-09T00:42:25.260Z,1009.92
2022-12-09T00:43:25.419Z,1009.91
2022-12-09T00:44:25.167Z,1009.93
2022-12-09T00:45:25.199Z,1009.93
2022-12-09T00:46:25.333Z,1009.89
2022-12-09T00:47:25.335Z,1009.95
2022-12-09T00:48:25.165Z,1009.94
2022-12-09T00:49:25.273Z,1009.9
2022-12-09T00:50:25.342Z,1009.92
2022-12-09T00:51:25.239Z,1009.94
2022-12-09T00:52:25.335Z,1009.95
2022-12-09T00:53:25.167Z,1009.97
2022-12-09T00:54:25.284Z,1009.93
2022-12-09T00:55:25.443Z,1009.94
2022-12-09T00:56:25.428Z,1009.93
2022-12-09T00:57:25.270Z,1009.99
2022-12-09T00:58:25.165Z,1009.95
2022-12-09T00:59:25.189Z,1009.98
2022-12-09T01:00:25.189Z,1010
2022-12-09T01:01:25.289Z,1010.02
2022-12-09T01:02:25.455Z,1009.96
2022-12-09T01:03:25.328Z,1009.98
2022-12-09T01:04:25.587Z,1009.99
2022-12-09T01:05:25.308Z,1009.98
2022-12-09T01:06:25.192Z,1010.02
2022-12-09T01:07:25.242Z,1010.03
2022-12-09T01:08:25.323Z,1010.04
2022-12-09T01:09:25.440Z,1010.13
2022-12-09T01:10:25.339Z,1010.1
2022-12-09T01:11:25.324Z,1010.06
2022-12-09T01:12:25.184Z,1010.07
2022-12-09T01:13:25.348Z,1010.08
2022-12-09T01:14:25.339Z,1010.07
2022-12-09T01:15:25.405Z,1010.1
2022-12-09T01:16:25.246Z,1010.15
2022-12-09T01:17:25.312Z,1010.13
2022-12-09T01:18:25.319Z,1010.17
2022-12-09T01:19:25.346Z,1010.17
2022-12-09T01:20:25.225Z,1010.23
2022-12-09T01:21:25.223Z,1010.27
2022-12-09T01:22:25.185Z,1010.27
2022-12-09T01:23:25.437Z,1010.26
2022-12-09T01:24:25.406Z,1010.23
2022-12-09T01:25:25.250Z,1010.17
2022-12-09T01:26:25.346Z,1010.18
2022-12-09T01:27:25.494Z,1010.25
2022-12-09T01:28:25.325Z,1010.21
2022-12-09T01:29:25.196Z,1010.19
2022-12-09T01:30:25.365Z,1010.24
2022-12-09T01:31:25.317Z,1010.34
2022-12-09T01:32:25.358Z,1010.26
2022-12-09T01:33:25.304Z,1010.26
2022-12-09T01:34:25.165Z,1010.29
2022-12-09T01:35:25.597Z,1010.24
2022-12-09T01:36:25.524Z,1010.24
2022-12-09T01:37:25.434Z,1010.26
2022-12-09T01:38:25.171Z,1010.25
2022-12-09T01:39:25.229Z,1010.27
2022-12-09T01:40:25.190Z,1010.27
2022-12-09T01:41:25.187Z,1010.26
2022-12-09T01:42:25.181Z,1010.24
2022-12-09T01:43:25.159Z,1010.24
2022-12-09T01:44:25.427Z,1010.24
2022-12-09T01:45:25.298Z,1010.21
2022-12-09T01:46:25.347Z,1010.19
2022-12-09T01:47:25.206Z,1010.17
2022-12-09T01:48:25.167Z,1010.18
2022-12-09T01:49:25.278Z,1010.21
2022-12-09T01:50:25.324Z,1010.24
2022-12-09T01:51:25.192Z,1010.2
2022-12-09T01:52:25.163Z,1010.19
2022-12-09T01:53:25.213Z,1010.19
2022-12-09T01:54:25.208Z,1010.2
2022-12-09T01:55:25.360Z,1010.22
2022-12-09T01:56:25.555Z,1010.17
2022-12-09T01:57:25.185Z,1010.17
2022-12-09T01:58:25.227Z,1010.23
2022-12-09T01:59:25.390Z,1010.19
2022-12-09T02:00:25.243Z,1010.21
2022-12-09T02:01:25.329Z,1010.2
2022-12-09T02:02:25.380Z,1010.16
2022-12-09T02:03:25.644Z,1010.17
2022-12-09T02:04:25.508Z,1010.18
2022-12-09T02:05:25.358Z,1010.2
2022-12-09T02:06:25.228Z,1010.2
2022-12-09T02:07:25.186Z,1010.21
2022-12-09T02:08:25.600Z,1010.18
2022-12-09T02:09:25.245Z,1010.17
2022-12-09T02:10:25.236Z,1010.15
2022-12-09T02:11:25.531Z,1010.16
2022-12-09T02:12:25.443Z,1010.15
2022-12-09T02:13:25.173Z,1010.18
2022-12-09T02:14:25.195Z,1010.11
2022-12-09T02:15:25.253Z,1010.15
2022-12-09T02:16:25.192Z,1010.14
2022-12-09T02:17:25.355Z,1010.19
2022-12-09T02:18:25.225Z,1010.08
2022-12-09T02:19:25.173Z,1010.16
2022-12-09T02:20:25.429Z,1010.13
2022-12-09T02:21:25.170Z,1010.08
2022-12-09T02:22:25.171Z,1010.04
2022-12-09T02:23:25.195Z,1010.02
2022-12-09T02:24:25.194Z,1009.98
2022-12-09T02:25:25.192Z,1009.98
2022-12-09T02:26:25.180Z,1010
2022-12-09T02:27:25.217Z,1009.96
2022-12-09T02:28:25.384Z,1009.96
2022-12-09T02:29:25.488Z,1009.99
2022-12-09T02:30:25.202Z,1009.91
2022-12-09T02:31:25.609Z,1009.99
2022-12-09T02:32:25.233Z,1009.89
2022-12-09T02:33:25.625Z,1009.95
2022-12-09T02:34:25.170Z,1010
2022-12-09T02:35:25.251Z,1010.04
2022-12-09T02:36:25.175Z,1009.99
2022-12-09T02:37:25.293Z,1010.05
2022-12-09T02:38:25.334Z,1009.99
2022-12-09T02:39:25.179Z,1010.02
2022-12-09T02:40:25.191Z,1010.01
2022-12-09T02:41:25.180Z,1009.98
2022-12-09T02:42:25.318Z,1010
2022-12-09T02:43:25.432Z,1009.98
2022-12-09T02:44:25.168Z,1010.02
2022-12-09T02:45:25.183Z,1010.03
2022-12-09T02:46:25.224Z,1010.09
2022-12-09T02:47:25.349Z,1010.04
2022-12-09T02:48:25.260Z,1010.08
2022-12-09T02:49:25.173Z,1010.06
2022-12-09T02:50:25.416Z,1010.08
2022-12-09T02:51:25.222Z,1010.07
2022-12-09T02:52:25.319Z,1010.05
2022-12-09T02:53:25.197Z,1010.09
2022-12-09T02:54:25.182Z,1010.13
2022-12-09T02:55:25.187Z,1010.17
2022-12-09T02:56:25.371Z,1010.06
2022-12-09T02:57:25.331Z,1010.09
2022-12-09T02:58:25.313Z,1010.12
2022-12-09T02:59:25.194Z,1010.18
2022-12-09T03:00:25.180Z,1010.15
2022-12-09T03:01:25.284Z,1010.21
2022-12-09T03:02:25.370Z,1010.13
2022-12-09T03:03:25.334Z,1010.04
2022-12-09T03:04:25.580Z,1010.1
2022-12-09T03:05:25.204Z,1010.09
2022-12-09T03:06:25.150Z,1010.02
2022-12-09T03:07:25.364Z,1010.04
2022-12-09T03:08:25.540Z,1010.03
2022-12-09T03:09:25.208Z,1010.02
2022-12-09T03:10:25.292Z,1010
2022-12-09T03:11:25.482Z,1009.93
2022-12-09T03:12:25.200Z,1009.92
2022-12-09T03:13:25.159Z,1009.92
2022-12-09T03:14:25.358Z,1009.87
2022-12-09T03:15:25.186Z,1009.84
2022-12-09T03:16:25.280Z,1009.87
2022-12-09T03:17:25.327Z,1009.81
2022-12-09T03:18:25.533Z,1009.79
2022-12-09T03:19:25.323Z,1009.82
2022-12-09T03:20:25.173Z,1009.84
2022-12-09T03:21:25.453Z,1009.81
2022-12-09T03:22:25.480Z,1009.84
2022-12-09T03:23:25.194Z,1009.84
2022-12-09T03:24:25.508Z,1009.81
2022-12-09T03:25:25.543Z,1009.77
2022-12-09T03:26:25.204Z,1009.81
2022-12-09T03:27:25.478Z,1009.81
2022-12-09T03:28:25.520Z,1009.81
2022-12-09T03:29:25.583Z,1009.82
2022-12-09T03:30:25.206Z,1009.76
2022-12-09T03:31:25.659Z,1009.85
2022-12-09T03:32:25.478Z,1009.89
2022-12-09T03:33:25.212Z,1009.82
2022-12-09T03:34:25.173Z,1009.77
2022-12-09T03:35:25.377Z,1009.76
2022-12-09T03:36:25.173Z,1009.71
2022-12-09T03:37:25.566Z,1009.69
2022-12-09T03:38:25.453Z,1009.71
2022-12-09T03:39:25.260Z,1009.72
2022-12-09T03:40:25.641Z,1009.78
2022-12-09T03:41:25.573Z,1009.72
2022-12-09T03:42:25.210Z,1009.76
2022-12-09T03:43:25.182Z,1009.72
2022-12-09T03:44:25.452Z,1009.7
2022-12-09T03:45:25.528Z,1009.68
2022-12-09T03:46:25.301Z,1009.7
2022-12-09T03:47:25.226Z,1009.7
2022-12-09T03:48:25.560Z,1009.68
2022-12-09T03:49:25.421Z,1009.66
2022-12-09T03:50:25.221Z,1009.67
2022-12-09T03:51:25.174Z,1009.69
2022-12-09T03:52:25.200Z,1009.62
2022-12-09T03:53:25.167Z,1009.68
2022-12-09T03:54:25.495Z,1009.68
2022-12-09T03:55:25.186Z,1009.68
2022-12-09T03:56:25.197Z,1009.7
2022-12-09T03:57:25.173Z,1009.68
2022-12-09T03:58:25.173Z,1009.69
2022-12-09T03:59:25.171Z,1009.74
2022-12-09T04:00:25.189Z,1009.76
2022-12-09T04:01:25.230Z,1009.78
2022-12-09T04:02:25.428Z,1009.75
2022-12-09T04:03:25.388Z,1009.77
2022-12-09T04:04:25.341Z,1009.79
2022-12-09T04:05:25.376Z,1009.76
2022-12-09T04:06:25.310Z,1009.81
2022-12-09T04:07:25.498Z,1009.87
2022-12-09T04:08:25.413Z,1009.82
2022-12-09T04:09:25.342Z,1009.78
2022-12-09T04:10:25.517Z,1009.78
2022-12-09T04:11:25.156Z,1009.77
2022-12-09T04:12:25.153Z,1009.74
2022-12-09T04:13:25.155Z,1009.71
2022-12-09T04:14:25.466Z,1009.71
2022-12-09T04:15:25.221Z,1009.72
2022-12-09T04:16:25.242Z,1009.64
2022-12-09T04:17:25.642Z,1009.67
2022-12-09T04:18:25.520Z,1009.76
2022-12-09T04:19:25.355Z,1009.78
2022-12-09T04:20:25.235Z,1009.71
2022-12-09T04:21:25.157Z,1009.72
2022-12-09T04:22:25.165Z,1009.71
2022-12-09T04:23:25.221Z,1009.73
2022-12-09T04:24:25.156Z,1009.77
2022-12-09T04:25:25.588Z,1009.71
2022-12-09T04:26:25.151Z,1009.73
2022-12-09T04:27:25.261Z,1009.67
2022-12-09T04:28:25.379Z,1009.73
2022-12-09T04:29:25.331Z,1009.69
2022-12-09T04:30:25.520Z,1009.71
2022-12-09T04:31:25.220Z,1009.75
2022-12-09T04:32:25.287Z,1009.75
2022-12-09T04:33:25.236Z,1009.75
2022-12-09T04:34:25.302Z,1009.73
2022-12-09T04:35:25.179Z,1009.69
2022-12-09T04:36:25.197Z,1009.65
2022-12-09T04:37:25.220Z,1009.65
2022-12-09T04:38:25.279Z,1009.63
2022-12-09T04:39:25.207Z,1009.65
2022-12-09T04:40:25.436Z,1009.62
2022-12-09T04:41:25.271Z,1009.64
2022-12-09T04:42:25.471Z,1009.64
2022-12-09T04:43:25.179Z,1009.68
2022-12-09T04:44:25.354Z,1009.68
2022-12-09T04:45:25.649Z,1009.65
2022-12-09T04:46:25.379Z,1009.71
2022-12-09T04:47:25.288Z,1009.64
2022-12-09T04:48:25.312Z,1009.64
2022-12-09T04:49:25.173Z,1009.69
2022-12-09T04:50:25.187Z,1009.63
2022-12-09T04:51:25.310Z,1009.69
2022-12-09T04:52:25.325Z,1009.68
2022-12-09T04:53:25.165Z,1009.7
2022-12-09T04:54:25.431Z,1009.73
2022-12-09T04:55:25.352Z,1009.68
2022-12-09T04:56:25.166Z,1009.74
2022-12-09T04:57:25.167Z,1009.71
2022-12-09T04:58:25.443Z,1009.75
2022-12-09T04:59:25.163Z,1009.77
2022-12-09T05:00:25.295Z,1009.82
2022-12-09T05:01:30.142Z,1009.79
2022-12-09T05:02:25.344Z,1009.77
2022-12-09T05:03:25.480Z,1009.81
2022-12-09T05:04:25.602Z,1009.8
2022-12-09T05:05:25.646Z,1009.77
2022-12-09T05:06:25.326Z,1009.79
2022-12-09T05:07:25.407Z,1009.77
2022-12-09T05:08:31.238Z,1009.79
2022-12-09T05:09:25.333Z,1009.78
2022-12-09T05:10:25.308Z,1009.79
2022-12-09T05:11:25.451Z,1009.86
2022-12-09T05:12:25.318Z,1009.82
2022-12-09T05:13:25.323Z,1009.81
2022-12-09T05:14:25.287Z,1009.86
2022-12-09T05:15:25.291Z,1009.87
2022-12-09T05:16:25.604Z,1009.9
2022-12-09T05:17:25.493Z,1009.86
2022-12-09T05:18:25.686Z,1009.89
2022-12-09T05:19:25.318Z,1009.89
2022-12-09T05:20:25.335Z,1009.87
2022-12-09T05:21:25.333Z,1009.9
2022-12-09T05:22:25.543Z,1009.9
2022-12-09T05:23:25.462Z,1009.82
2022-12-09T05:24:25.467Z,1009.86
2022-12-09T05:25:25.540Z,1009.83
2022-12-09T05:26:25.757Z,1009.87
2022-12-09T05:27:25.545Z,1009.85
2022-12-09T05:28:25.228Z,1009.78
2022-12-09T05:29:25.430Z,1009.84
2022-12-09T05:30:25.176Z,1009.81
2022-12-09T05:31:25.354Z,1009.86
2022-12-09T05:32:25.472Z,1009.88
2022-12-09T05:33:25.279Z,1009.85
2022-12-09T05:34:25.325Z,1009.88
2022-12-09T05:35:25.590Z,1009.86
2022-12-09T05:36:25.488Z,1009.9
2022-12-09T05:37:25.274Z,1009.82
2022-12-09T05:38:25.192Z,1009.76
2022-12-09T05:39:25.193Z,1009.76
2022-12-09T05:40:25.391Z,1009.74
2022-12-09T05:41:25.356Z,1009.73
2022-12-09T05:42:25.380Z,1009.74
2022-12-09T05:43:25.443Z,1009.73
2022-12-09T05:44:25.174Z,1009.74
2022-12-09T05:45:25.192Z,1009.68
2022-12-09T05:46:25.216Z,1009.7
2022-12-09T05:47:25.594Z,1009.74
2022-12-09T05:48:25.676Z,1009.71
2022-12-09T05:49:25.467Z,1009.68
2022-12-09T05:50:25.687Z,1009.68
2022-12-09T05:51:25.463Z,1009.68
2022-12-09T05:52:25.182Z,1009.59
2022-12-09T05:53:25.358Z,1009.58
2022-12-09T05:54:25.243Z,1009.6
2022-12-09T05:55:25.800Z,1009.59
2022-12-09T05:56:25.594Z,1009.58
2022-12-09T05:57:25.624Z,1009.58
2022-12-09T05:58:25.237Z,1009.62
2022-12-09T05:59:25.454Z,1009.56
2022-12-09T06:00:25.275Z,1009.61
2022-12-09T06:01:25.252Z,1009.67
2022-12-09T06:02:25.516Z,1009.61
2022-12-09T06:03:25.500Z,1009.63
2022-12-09T06:04:25.412Z,1009.62
2022-12-09T06:05:25.610Z,1009.51
2022-12-09T06:06:25.581Z,1009.56
2022-12-09T06:07:25.396Z,1009.54
2022-12-09T06:08:25.379Z,1009.49
2022-12-09T06:09:25.687Z,1009.55
2022-12-09T06:10:25.666Z,1009.56
2022-12-09T06:11:25.837Z,1009.56
2022-12-09T06:12:25.226Z,1009.51
2022-12-09T06:13:25.224Z,1009.48
2022-12-09T06:14:25.255Z,1009.51
2022-12-09T06:15:31.212Z,1009.5
2022-12-09T06:16:25.823Z,1009.56
2022-12-09T06:17:25.559Z,1009.49
2022-12-09T06:18:25.350Z,1009.59
2022-12-09T06:19:25.390Z,1009.56
2022-12-09T06:20:25.267Z,1009.54
2022-12-09T06:21:25.267Z,1009.51
2022-12-09T06:22:25.339Z,1009.54
2022-12-09T06:23:25.340Z,1009.56
2022-12-09T06:24:25.190Z,1009.64
2022-12-09T06:25:25.414Z,1009.62
2022-12-09T06:26:25.452Z,1009.6
2022-12-09T06:27:25.271Z,1009.6
2022-12-09T06:28:25.177Z,1009.58
2022-12-09T06:29:25.252Z,1009.61
2022-12-09T06:30:25.311Z,1009.6
2022-12-09T06:31:25.803Z,1009.66
2022-12-09T06:32:25.355Z,1009.66
2022-12-09T06:33:53.145Z,1009.65
2022-12-09T06:34:25.451Z,1009.69
2022-12-09T06:35:25.353Z,1009.8
2022-12-09T06:36:25.549Z,1009.73
2022-12-09T06:37:25.239Z,1009.71
2022-12-09T06:38:25.487Z,1009.75
2022-12-09T06:39:25.203Z,1009.72
2022-12-09T06:40:25.420Z,1009.7
2022-12-09T06:41:25.479Z,1009.71
2022-12-09T06:42:25.380Z,1009.69
2022-12-09T06:43:25.334Z,1009.66
2022-12-09T06:44:25.234Z,1009.66
2022-12-09T06:45:25.339Z,1009.68
2022-12-09T06:46:25.380Z,1009.62
2022-12-09T06:47:25.656Z,1009.63
2022-12-09T06:48:25.672Z,1009.64
2022-12-09T06:49:25.599Z,1009.7
2022-12-09T06:50:25.391Z,1009.68
2022-12-09T06:51:25.421Z,1009.69
2022-12-09T06:52:25.327Z,1009.68
2022-12-09T06:53:25.333Z,1009.63
2022-12-09T06:54:25.487Z,1009.64
2022-12-09T06:55:25.487Z,1009.6
2022-12-09T06:56:25.517Z,1009.65
2022-12-09T06:57:25.603Z,1009.65
2022-12-09T06:58:25.512Z,1009.64
2022-12-09T06:59:25.478Z,1009.65
2022-12-09T07:00:25.358Z,1009.67
2022-12-09T07:01:25.907Z,1009.66
2022-12-09T07:02:25.553Z,1009.74
2022-12-09T07:03:25.629Z,1009.71
2022-12-09T07:04:25.787Z,1009.73
2022-12-09T07:05:25.933Z,1009.79
2022-12-09T07:06:25.394Z,1009.75
2022-12-09T07:07:25.228Z,1009.75
2022-12-09T07:08:25.642Z,1009.84
2022-12-09T07:09:25.439Z,1009.86
2022-12-09T07:10:25.290Z,1009.86
2022-12-09T07:11:25.725Z,1009.82
2022-12-09T07:12:25.167Z,1009.82
2022-12-09T07:13:25.379Z,1009.81
2022-12-09T07:14:25.249Z,1009.8
2022-12-09T07:15:25.302Z,1009.78
2022-12-09T07:16:25.828Z,1009.8
2022-12-09T07:17:25.572Z,1009.81
2022-12-09T07:18:25.256Z,1009.85
2022-12-09T07:19:25.546Z,1009.83
2022-12-09T07:20:25.286Z,1009.84
2022-12-09T07:21:25.581Z,1009.84
2022-12-09T07:22:25.476Z,1009.84
2022-12-09T07:23:25.463Z,1009.85
2022-12-09T07:24:25.418Z,1009.83
2022-12-09T07:25:25.625Z,1009.88
2022-12-09T07:26:25.176Z,1009.84
2022-12-09T07:27:25.197Z,1009.86
2022-12-09T07:28:25.568Z,1009.86
2022-12-09T07:29:25.317Z,1009.83
2022-12-09T07:30:25.619Z,1009.78
2022-12-09T07:31:25.602Z,1009.85
2022-12-09T07:32:25.236Z,1009.85
2022-12-09T07:33:25.576Z,1009.83
2022-12-09T07:34:25.397Z,1009.83
2022-12-09T07:35:25.364Z,1009.85
2022-12-09T07:36:25.293Z,1009.86
2022-12-09T07:37:25.235Z,1009.84
2022-12-09T07:38:25.694Z,1009.84
2022-12-09T07:39:25.277Z,1009.79
2022-12-09T07:40:25.181Z,1009.81
2022-12-09T07:41:25.353Z,1009.79
2022-12-09T07:42:25.231Z,1009.85
2022-12-09T07:43:25.408Z,1009.87
2022-12-09T07:44:25.368Z,1009.83
2022-12-09T07:45:25.593Z,1009.81
2022-12-09T07:46:25.244Z,1009.81
2022-12-09T07:47:25.580Z,1009.83
2022-12-09T07:48:25.465Z,1009.85
2022-12-09T07:49:25.758Z,1009.86
2022-12-09T07:50:25.364Z,1009.84
2022-12-09T07:51:25.302Z,1009.88
2022-12-09T07:52:25.343Z,1009.85
2022-12-09T07:53:25.438Z,1009.89
2022-12-09T07:54:25.316Z,1009.87
2022-12-09T07:55:25.672Z,1009.81
2022-12-09T07:56:25.568Z,1009.87
2022-12-09T07:57:25.564Z,1009.79
2022-12-09T07:58:25.228Z,1009.74
2022-12-09T07:59:25.390Z,1009.67
2022-12-09T08:00:25.211Z,1009.68
2022-12-09T08:01:25.385Z,1009.69
2022-12-09T08:02:25.243Z,1009.7
2022-12-09T08:03:25.452Z,1009.74
2022-12-09T08:04:25.487Z,1009.68
2022-12-09T08:05:25.631Z,1009.73
2022-12-09T08:06:25.764Z,1009.75
2022-12-09T08:07:25.711Z,1009.68
2022-12-09T08:08:25.546Z,1009.72
2022-12-09T08:09:25.494Z,1009.68
2022-12-09T08:10:25.419Z,1009.7
2022-12-09T08:11:25.559Z,1009.7
2022-12-09T08:12:25.512Z,1009.73
2022-12-09T08:13:25.452Z,1009.64
2022-12-09T08:14:25.328Z,1009.65
2022-12-09T08:15:25.548Z,1009.68
2022-12-09T08:16:25.748Z,1009.7
2022-12-09T08:17:25.348Z,1009.69
2022-12-09T08:18:25.345Z,1009.63
2022-12-09T08:19:25.450Z,1009.59
2022-12-09T08:20:29.005Z,1009.59
2022-12-09T08:21:25.575Z,1009.59
2022-12-09T08:22:25.465Z,1009.6
2022-12-09T08:23:25.635Z,1009.54
2022-12-09T08:24:25.472Z,1009.53
2022-12-09T08:25:25.268Z,1009.54
2022-12-09T08:26:25.548Z,1009.53
2022-12-09T08:27:25.438Z,1009.54
2022-12-09T08:28:25.466Z,1009.51
2022-12-09T08:29:25.237Z,1009.51
2022-12-09T08:30:25.466Z,1009.43
2022-12-09T08:31:25.684Z,1009.48
2022-12-09T08:32:25.693Z,1009.44
2022-12-09T08:33:25.418Z,1009.5
2022-12-09T08:34:25.556Z,1009.52
2022-12-09T08:35:25.618Z,1009.5
2022-12-09T08:36:25.578Z,1009.45
2022-12-09T08:37:25.356Z,1009.49
2022-12-09T08:38:25.191Z,1009.44
2022-12-09T08:39:25.211Z,1009.43
2022-12-09T08:40:25.392Z,1009.4
2022-12-09T08:41:25.173Z,1009.39
2022-12-09T08:42:25.539Z,1009.41
2022-12-09T08:43:25.203Z,1009.43
2022-12-09T08:44:25.323Z,1009.48
2022-12-09T08:45:25.611Z,1009.48
2022-12-09T08:46:25.666Z,1009.47
2022-12-09T08:47:25.335Z,1009.48
2022-12-09T08:48:25.581Z,1009.51
2022-12-09T08:49:25.304Z,1009.45
2022-12-09T08:50:25.674Z,1009.47
2022-12-09T08:51:25.538Z,1009.49
2022-12-09T08:52:25.454Z,1009.54
2022-12-09T08:53:25.250Z,1009.45
2022-12-09T08:54:25.618Z,1009.51
2022-12-09T08:55:25.331Z,1009.53
2022-12-09T08:56:25.189Z,1009.46
2022-12-09T08:57:25.170Z,1009.47
2022-12-09T08:58:25.205Z,1009.46
2022-12-09T08:59:25.418Z,1009.43
2022-12-09T09:00:25.283Z,1009.45
2022-12-09T09:01:25.330Z,1009.41
2022-12-09T09:02:25.445Z,1009.41
2022-12-09T09:03:25.517Z,1009.39
2022-12-09T09:04:25.410Z,1009.38
2022-12-09T09:05:25.906Z,1009.37
2022-12-09T09:06:25.442Z,1009.37
2022-12-09T09:07:25.557Z,1009.38
2022-12-09T09:08:25.318Z,1009.32
2022-12-09T09:09:25.484Z,1009.32
2022-12-09T09:10:25.852Z,1009.34
2022-12-09T09:11:25.431Z,1009.35
2022-12-09T09:12:25.420Z,1009.28
2022-12-09T09:13:25.195Z,1009.26
2022-12-09T09:14:25.223Z,1009.27
2022-12-09T09:15:25.260Z,1009.25
2022-12-09T09:16:25.660Z,1009.25
2022-12-09T09:17:25.602Z,1009.25
2022-12-09T09:18:25.297Z,1009.28
2022-12-09T09:19:25.710Z,1009.26
2022-12-09T09:20:25.697Z,1009.3
2022-12-09T09:21:25.579Z,1009.3
2022-12-09T09:22:25.492Z,1009.31
2022-12-09T09:23:25.592Z,1009.31
2022-12-09T09:24:25.397Z,1009.29
2022-12-09T09:25:25.555Z,1009.24
2022-12-09T09:26:25.340Z,1009.22
2022-12-09T09:27:25.615Z,1009.27
2022-12-09T09:28:30.680Z,1009.28
2022-12-09T09:29:25.595Z,1009.26
2022-12-09T09:30:25.413Z,1009.27
2022-12-09T09:31:25.373Z,1009.28
2022-12-09T09:32:25.632Z,1009.28
2022-12-09T09:33:25.686Z,1009.25
2022-12-09T09:34:25.325Z,1009.28
2022-12-09T09:35:25.312Z,1009.29
2022-12-09T09:36:25.700Z,1009.27
2022-12-09T09:37:25.216Z,1009.25
2022-12-09T09:38:25.702Z,1009.21
2022-12-09T09:39:25.751Z,1009.15
2022-12-09T09:40:25.794Z,1009.16
2022-12-09T09:41:25.539Z,1009.19
2022-12-09T09:42:25.380Z,1009.17
2022-12-09T09:43:25.211Z,1009.22
2022-12-09T09:44:25.576Z,1009.21
2022-12-09T09:45:25.610Z,1009.19
2022-12-09T09:46:25.692Z,1009.16
2022-12-09T09:47:25.272Z,1009.21
2022-12-09T09:48:25.313Z,1009.17
2022-12-09T09:49:25.578Z,1009.17
2022-12-09T09:50:25.538Z,1009.06
2022-12-09T09:51:25.412Z,1009.03
2022-12-09T09:52:25.412Z,1009.01
2022-12-09T09:53:25.395Z,1009
2022-12-09T09:54:25.545Z,1009.02
2022-12-09T09:55:25.245Z,1009.01
2022-12-09T09:56:25.505Z,1008.99
2022-12-09T09:57:25.607Z,1008.97
2022-12-09T09:58:25.501Z,1009.02
2022-12-09T09:59:25.513Z,1008.94
2022-12-09T10:00:26.274Z,1008.89
2022-12-09T10:01:25.694Z,1008.77
2022-12-09T10:02:25.596Z,1008.86
2022-12-09T10:03:25.430Z,1008.93
2022-12-09T10:04:25.604Z,1008.86
2022-12-09T10:05:25.532Z,1008.79
2022-12-09T10:06:25.873Z,1008.84
2022-12-09T10:07:25.410Z,1008.84
2022-12-09T10:08:25.801Z,1008.78
2022-12-09T10:09:25.729Z,1008.75
2022-12-09T10:10:25.914Z,1008.76
2022-12-09T10:11:25.906Z,1008.76
2022-12-09T10:12:25.867Z,1008.78
2022-12-09T10:13:25.554Z,1008.78
2022-12-09T10:14:25.593Z,1008.73
2022-12-09T10:15:25.225Z,1008.71
2022-12-09T10:16:25.352Z,1008.66
2022-12-09T10:17:25.315Z,1008.66
2022-12-09T10:18:25.264Z,1008.7
2022-12-09T10:19:25.266Z,1008.69
2022-12-09T10:20:25.615Z,1008.71
2022-12-09T10:21:25.187Z,1008.7
2022-12-09T10:22:25.642Z,1008.63
2022-12-09T10:23:25.343Z,1008.63
2022-12-09T10:24:25.331Z,1008.6
2022-12-09T10:25:25.756Z,1008.57
2022-12-09T10:26:25.651Z,1008.57
2022-12-09T10:27:25.199Z,1008.54
2022-12-09T10:28:25.374Z,1008.52
2022-12-09T10:29:25.281Z,1008.49
2022-12-09T10:30:28.919Z,1008.48
2022-12-09T10:31:25.305Z,1008.46
2022-12-09T10:32:25.675Z,1008.43
2022-12-09T10:33:25.260Z,1008.39
2022-12-09T10:34:25.701Z,1008.37
2022-12-09T10:35:25.771Z,1008.33
2022-12-09T10:36:29.295Z,1008.34
2022-12-09T10:37:25.228Z,1008.3
2022-12-09T10:38:25.499Z,1008.24
2022-12-09T10:39:25.531Z,1008.26
2022-12-09T10:40:25.669Z,1008.26
2022-12-09T10:41:25.606Z,1008.26
2022-12-09T10:42:29.575Z,1008.27
2022-12-09T10:43:25.477Z,1008.33
2022-12-09T10:44:25.419Z,1008.31
2022-12-09T10:45:32.109Z,1008.29
2022-12-09T10:46:25.654Z,1008.23
2022-12-09T10:47:25.873Z,1008.2
2022-12-09T10:48:29.577Z,1008.13
2022-12-09T10:49:25.374Z,1008.15
2022-12-09T10:50:25.616Z,1008.14
2022-12-09T10:51:25.812Z,1008.06
2022-12-09T10:52:25.668Z,1008.08
2022-12-09T10:53:25.312Z,1008
2022-12-09T10:54:25.183Z,1007.96
2022-12-09T10:55:25.669Z,1007.96
2022-12-09T10:56:25.320Z,1008.01
2022-12-09T10:57:25.305Z,1008.02
2022-12-09T10:58:25.662Z,1007.98
2022-12-09T10:59:25.748Z,1007.93
2022-12-09T11:00:29.601Z,1007.97
2022-12-09T11:01:25.322Z,1008
2022-12-09T11:02:25.540Z,1007.99
2022-12-09T11:03:25.571Z,1007.97
2022-12-09T11:04:25.637Z,1007.94
2022-12-09T11:05:25.523Z,1007.93
2022-12-09T11:06:25.996Z,1007.91
2022-12-09T11:07:25.825Z,1007.94
2022-12-09T11:08:25.489Z,1007.9
2022-12-09T11:09:25.353Z,1007.83
2022-12-09T11:10:25.728Z,1007.82
2022-12-09T11:11:25.575Z,1007.86
2022-12-09T11:12:25.724Z,1007.84
2022-12-09T11:13:25.421Z,1007.81
2022-12-09T11:14:25.685Z,1007.82
2022-12-09T11:15:25.595Z,1007.83
2022-12-09T11:16:25.336Z,1007.83
2022-12-09T11:17:25.346Z,1007.8
2022-12-09T11:18:25.655Z,1007.82
2022-12-09T11:19:25.386Z,1007.83
2022-12-09T11:20:25.603Z,1007.78
2022-12-09T11:21:25.289Z,1007.78
2022-12-09T11:22:25.387Z,1007.76
2022-12-09T11:23:25.516Z,1007.74
2022-12-09T11:24:25.253Z,1007.72
2022-12-09T11:25:25.701Z,1007.71
2022-12-09T11:26:25.267Z,1007.74
2022-12-09T11:27:25.321Z,1007.74
2022-12-09T11:28:25.380Z,1007.75
2022-12-09T11:29:25.497Z,1007.74
2022-12-09T11:30:25.527Z,1007.75
2022-12-09T11:31:29.963Z,1007.71
2022-12-09T11:32:25.412Z,1007.76
2022-12-09T11:33:25.369Z,1007.76
2022-12-09T11:34:25.385Z,1007.74
2022-12-09T11:35:25.809Z,1007.74
2022-12-09T11:36:26.441Z,1007.79
2022-12-09T11:37:25.167Z,1007.76
2022-12-09T11:38:25.167Z,1007.76
2022-12-09T11:39:25.186Z,1007.73
2022-12-09T11:40:25.193Z,1007.7
2022-12-09T11:41:25.181Z,1007.69
2022-12-09T11:42:25.182Z,1007.66
2022-12-09T11:43:25.270Z,1007.6
2022-12-09T11:44:25.162Z,1007.61
2022-12-09T11:45:25.221Z,1007.6
2022-12-09T11:46:25.198Z,1007.63
2022-12-09T11:47:25.226Z,1007.66
2022-12-09T11:48:33.673Z,1007.66
2022-12-09T11:49:25.173Z,1007.69
2022-12-09T11:50:25.319Z,1007.71
2022-12-09T11:51:25.176Z,1007.76
2022-12-09T11:52:25.163Z,1007.8
2022-12-09T11:53:25.169Z,1007.75
2022-12-09T11:54:25.169Z,1007.72
2022-12-09T11:55:25.188Z,1007.78
2022-12-09T11:56:25.177Z,1007.68
2022-12-09T11:57:25.176Z,1007.69
2022-12-09T11:58:25.180Z,1007.72
2022-12-09T11:59:25.172Z,1007.72
2022-12-09T12:00:25.195Z,1007.73
2022-12-09T12:01:25.194Z,1007.7
2022-12-09T12:02:25.265Z,1007.69
2022-12-09T12:03:25.239Z,1007.61
2022-12-09T12:04:25.174Z,1007.61
2022-12-09T12:05:25.197Z,1007.64
2022-12-09T12:06:25.176Z,1007.62
2022-12-09T12:07:25.170Z,1007.59
2022-12-09T12:08:25.319Z,1007.61